Warden, WA

8:28 PM PDT on August 28, 2014 (GMT -0700)
Flat scab land | Change Station
CLOSE
Current Station
Personal Weather Station
Location: Ephrata, WA
Elevation: 1289 ft
Nearby Weather Stations

Elev 1289 ft 47.36 °N, 119.53 °W | Updated 146 days ago

Clear
Clear
72 °F
Feels Like 72 °F
N
7
Wind Variable Wind from West
Gusts 9 mph

Today
High -- | Low -- °F
--% Chance of Precip.
Yesterday
High -- | Low -- °F
Precip. -- in
6:11 AM 7:45 PM
Waxing Crescent, 11% visible
Pressure 29.88 in
Visibility 10.0 miles
Clouds Clear
Dew Point 46 °F
Humidity 38%
Rainfall 0.00 in
Snow Depth Not available.
UV 0 out of 12
Pollen 4.90 out of 12
Air Quality Not available.
Flu Activity Not available.
METAR KEPH 290253Z AUTO 32011KT 10SM CLR 27/04 A2990 RMK AO2 SLP116 T02720044 53003

More Conditions Fewer Conditions

Pressure 29.88 in
Visibility 10.0 miles
Clouds Clear
Dew Point 46 °F
Humidity 38%
Rainfall 0.00 in
Snow Depth Not available.
UV 0 out of 12
Pollen 4.90 out of 12
Air Quality Not available.
Flu Activity Not available.
METAR KEPH 290253Z AUTO 32011KT 10SM CLR 27/04 A2990 RMK AO2 SLP116 T02720044 53003

More Conditions Fewer Conditions

10-Day Weather Forecast

Almanac

Astronomy

Aug. 28, 2014 Rise Set
Actual Time 6:11 AM PDT 7:45 PM PDT
Civil Twilight 5:39 AM PDT 8:17 PM PDT
Nautical Twilight 5:00 AM PDT 8:56 PM PDT
Astronomical Twilight 4:18 AM PDT 9:38 PM PDT
Moon 9:23 AM PDT (8/28) 8:55 PM PDT (8/28)
Length of Visible Light 14h 38m
Length of Day
13h 33m
Tomorrow will be 3m 14s shorter.
Waxing Crescent, 11% of the Moon is Illuminated
Today
Waxing Crescent
Sep 2
First Quarter
Sep 8
Full
Sep 15
Last Quarter
Sep 24
New

Today's Extremes

State Highs State Lows

Community

WunderPhotos

Upload Photos

1,748,151 photos uploaded!

Nearby

Snow Depth

Station Depth Elevation
Trough 0 in 5300 ft
Upper Wheeler 0 in 4400 ft
Grouse Camp 0 in 5380 ft
Sasse Ridge 0 in 4200 ft
Moses Mountain 1 in 5300 ft

Earthquake Activity

City Distance Mag. Time & Date
No recent earthquake activity has been reported nearby.
Minimum magnitude displayed is 2.5.

Coastal Water Temperatures

Place Temperature
No Stations Reporting

Nearby Weather Stations